Angora, Nebraska
Current Conditions -  °F | °C
As of 5:53 PM on Saturday 25 Oct 2014 (Local Time) from KAIA Reporting Station
Clear Clear  
Wind Chill: 60°   Ceiling: Unl
Heat Index: 60°   Visibility: 10mi
Dew Point: 36°   Wind: 10mph
Humidity: 41%   Direction: 150°SSE
Pressure: 29.99"   Gusts: NA
Location:  41.85°N, 103.13°W
Report Text: KAIA 252353Z AUTO 15009KT 10SM CLR 16/02 A2999 RMK AO2 SLP148 T01560022 10250 20156 56017
Loading
Personal Weather Stations






























Interactive Weather Map
Tropical Storm Tracking
New forecast layout! Learn more

10-Day Weather Forecast

Advertisements
Track Severe Weather on mobile